createdAt,value
2018-10-18T00:01:06.253Z,13.30
2018-10-18T00:03:34.967Z,13.30
2018-10-18T00:06:03.441Z,13.20
2018-10-18T00:08:31.894Z,13.10
2018-10-18T00:11:00.348Z,13.10
2018-10-18T00:13:28.675Z,13.00
2018-10-18T00:15:57.918Z,13.10
2018-10-18T00:18:26.976Z,13.10
2018-10-18T00:20:56.419Z,13.10
2018-10-18T00:23:26.001Z,12.90
2018-10-18T00:25:54.387Z,12.90
2018-10-18T00:28:22.803Z,12.90
2018-10-18T00:30:51.290Z,12.90
2018-10-18T00:33:20.057Z,13.00
2018-10-18T00:35:48.945Z,13.00
2018-10-18T00:38:20.235Z,13.00
2018-10-18T00:40:49.206Z,13.00
2018-10-18T00:43:19.006Z,13.00
2018-10-18T00:45:47.702Z,12.80
2018-10-18T00:48:16.842Z,12.70
2018-10-18T00:50:45.917Z,12.60
2018-10-18T00:53:14.990Z,12.60
2018-10-18T00:55:43.471Z,12.70
2018-10-18T00:58:12.209Z,12.70
2018-10-18T01:00:41.103Z,12.60
2018-10-18T01:03:10.620Z,12.60
2018-10-18T01:05:39.045Z,12.50
2018-10-18T01:08:08.093Z,12.70
2018-10-18T01:13:07.601Z,12.30
2018-10-18T01:15:36.128Z,12.30
2018-10-18T01:18:05.100Z,12.30
2018-10-18T01:20:33.570Z,12.30
2018-10-18T01:23:02.083Z,12.30
2018-10-18T01:25:31.193Z,12.30
2018-10-18T01:27:59.785Z,12.40
2018-10-18T01:30:28.654Z,12.40
2018-10-18T01:32:57.156Z,12.30
2018-10-18T01:35:25.552Z,12.40
2018-10-18T01:37:53.935Z,12.40
2018-10-18T01:40:24.196Z,12.40
2018-10-18T01:42:53.336Z,12.40
2018-10-18T01:45:22.141Z,12.40
2018-10-18T01:47:50.864Z,12.40
2018-10-18T01:50:20.848Z,12.30
2018-10-18T01:52:50.228Z,12.20
2018-10-18T01:55:19.454Z,12.20
2018-10-18T01:57:48.408Z,12.20
2018-10-18T02:00:17.433Z,12.20
2018-10-18T02:02:46.491Z,12.10
2018-10-18T02:05:15.173Z,12.10
2018-10-18T02:07:43.559Z,12.10
2018-10-18T02:10:12.037Z,12.00
2018-10-18T02:12:40.543Z,12.10
2018-10-18T02:15:10.157Z,12.10
2018-10-18T02:17:39.243Z,12.10
2018-10-18T02:20:08.754Z,12.10
2018-10-18T02:22:37.536Z,12.10
2018-10-18T02:25:07.626Z,12.10
2018-10-18T02:27:35.952Z,12.10
2018-10-18T02:30:05.372Z,12.10
2018-10-18T02:32:33.705Z,12.10
2018-10-18T02:35:02.688Z,12.00
2018-10-18T02:37:31.119Z,11.90
2018-10-18T02:39:59.817Z,12.00
2018-10-18T02:42:29.188Z,12.10
2018-10-18T02:44:57.588Z,12.10
2018-10-18T02:47:26.051Z,12.00
2018-10-18T02:49:54.741Z,12.00
2018-10-18T02:52:23.300Z,11.90
2018-10-18T02:54:52.355Z,12.20
2018-10-18T02:57:20.807Z,12.00
2018-10-18T02:59:49.487Z,12.00
2018-10-18T03:02:19.784Z,12.10
2018-10-18T03:04:48.872Z,12.20
2018-10-18T03:07:17.253Z,12.10
2018-10-18T03:09:45.725Z,12.10
2018-10-18T03:12:14.223Z,12.00
2018-10-18T03:14:43.135Z,11.90
2018-10-18T03:17:11.704Z,12.00
2018-10-18T03:19:40.257Z,12.40
2018-10-18T03:22:08.969Z,12.00
2018-10-18T03:24:37.393Z,12.00
2018-10-18T03:27:06.176Z,11.90
2018-10-18T03:29:35.112Z,12.00
2018-10-18T03:32:03.614Z,12.00
2018-10-18T03:34:32.010Z,12.00
2018-10-18T03:37:00.544Z,11.90
2018-10-18T03:39:29.188Z,11.80
2018-10-18T03:41:58.622Z,11.90
2018-10-18T03:44:27.029Z,11.60
2018-10-18T03:46:55.460Z,11.50
2018-10-18T03:49:24.223Z,11.50
2018-10-18T03:51:52.639Z,11.60
2018-10-18T03:54:21.091Z,11.70
2018-10-18T03:56:49.457Z,11.70
2018-10-18T03:59:17.934Z,11.70
2018-10-18T04:01:46.303Z,11.80
2018-10-18T04:04:15.518Z,11.80
2018-10-18T04:06:44.507Z,11.60
2018-10-18T04:09:13.199Z,11.50
2018-10-18T04:11:43.378Z,11.30
2018-10-18T04:14:11.753Z,11.30
2018-10-18T04:16:40.307Z,11.20
2018-10-18T04:19:09.109Z,11.10
2018-10-18T04:21:37.902Z,11.10
2018-10-18T04:24:06.368Z,11.10
2018-10-18T04:26:35.505Z,11.00
2018-10-18T04:29:04.932Z,11.00
2018-10-18T04:31:33.438Z,11.00
2018-10-18T04:34:02.007Z,11.00
2018-10-18T04:36:30.802Z,11.00
2018-10-18T04:39:00.035Z,11.00
2018-10-18T04:41:29.370Z,11.00
2018-10-18T04:43:58.815Z,11.00
2018-10-18T04:46:27.493Z,10.90
2018-10-18T04:48:56.198Z,11.00
2018-10-18T04:51:24.586Z,11.00
2018-10-18T04:53:53.180Z,11.00
2018-10-18T04:58:50.865Z,10.90
2018-10-18T05:01:19.383Z,10.90
2018-10-18T05:03:48.388Z,11.00
2018-10-18T05:06:17.329Z,11.00
2018-10-18T05:08:45.970Z,11.10
2018-10-18T05:11:14.688Z,11.10
2018-10-18T05:13:45.316Z,11.00
2018-10-18T05:16:14.077Z,10.90
2018-10-18T05:18:42.833Z,10.90
2018-10-18T05:21:11.384Z,10.90
2018-10-18T05:23:39.955Z,11.00
2018-10-18T05:26:09.232Z,11.10
2018-10-18T05:28:37.674Z,11.10
2018-10-18T05:31:06.546Z,11.10
2018-10-18T05:33:36.202Z,11.00
2018-10-18T05:36:04.836Z,11.00
2018-10-18T05:38:33.710Z,11.10
2018-10-18T05:41:02.327Z,11.20
2018-10-18T05:43:30.881Z,11.10
2018-10-18T05:45:59.507Z,11.10
2018-10-18T05:48:27.985Z,11.10
2018-10-18T05:50:57.146Z,11.10
2018-10-18T05:53:25.687Z,11.00
2018-10-18T05:55:56.229Z,11.00
2018-10-18T06:00:54.370Z,10.90
2018-10-18T06:03:23.961Z,11.00
2018-10-18T06:05:53.980Z,11.00
2018-10-18T06:08:23.619Z,11.00
2018-10-18T06:11:09.351Z,11.10
2018-10-18T06:13:38.096Z,11.10
2018-10-18T06:16:07.456Z,11.20
2018-10-18T06:18:36.342Z,11.20
2018-10-18T06:23:35.627Z,11.30
2018-10-18T06:26:05.206Z,11.20
2018-10-18T06:28:34.550Z,11.20
2018-10-18T06:31:03.771Z,11.30
2018-10-18T06:33:32.570Z,11.40
2018-10-18T06:36:01.358Z,11.70
2018-10-18T06:38:31.317Z,11.60
2018-10-18T06:41:02.021Z,11.80
2018-10-18T06:43:36.371Z,11.80
2018-10-18T06:46:09.056Z,12.00
2018-10-18T06:48:38.760Z,12.00
2018-10-18T06:51:08.226Z,12.00
2018-10-18T06:53:37.412Z,12.10
2018-10-18T06:56:07.270Z,12.10
2018-10-18T06:58:36.576Z,12.40
2018-10-18T07:01:07.282Z,12.10
2018-10-18T07:03:37.236Z,12.20
2018-10-18T07:06:06.076Z,12.20
2018-10-18T07:11:05.818Z,12.40
2018-10-18T07:13:34.832Z,12.40
2018-10-18T07:16:04.821Z,12.40
2018-10-18T07:18:34.934Z,12.40
2018-10-18T07:21:05.162Z,12.50
2018-10-18T07:23:34.748Z,12.40
2018-10-18T07:26:03.943Z,12.50
2018-10-18T07:31:03.256Z,12.30
2018-10-18T07:33:33.144Z,12.50
2018-10-18T07:36:02.090Z,12.60
2018-10-18T07:38:33.255Z,12.60
2018-10-18T07:41:03.082Z,12.70
2018-10-18T07:43:33.794Z,12.60
2018-10-18T07:46:03.653Z,12.70
2018-10-18T07:48:33.244Z,12.70
2018-10-18T07:51:02.633Z,12.80
2018-10-18T07:53:32.520Z,12.80
2018-10-18T07:56:01.600Z,12.80
2018-10-18T07:58:31.119Z,12.90
2018-10-18T08:01:00.103Z,13.00
2018-10-18T08:03:29.092Z,13.20
2018-10-18T08:05:58.319Z,13.30
2018-10-18T08:08:27.648Z,13.20
2018-10-18T08:10:57.664Z,13.20
2018-10-18T08:13:27.033Z,13.20
2018-10-18T08:15:55.652Z,13.30
2018-10-18T08:18:25.142Z,13.30
2018-10-18T08:20:55.165Z,13.30
2018-10-18T08:23:23.672Z,13.40
2018-10-18T08:25:53.168Z,13.50
2018-10-18T08:28:22.683Z,13.70
2018-10-18T08:30:53.498Z,13.70
2018-10-18T08:33:23.712Z,13.80
2018-10-18T08:35:54.511Z,13.90
2018-10-18T08:38:23.803Z,13.90
2018-10-18T08:40:52.991Z,14.10
2018-10-18T08:43:23.742Z,14.10
2018-10-18T08:45:53.494Z,14.20
2018-10-18T08:48:22.102Z,14.30
2018-10-18T08:50:50.727Z,14.30
2018-10-18T08:53:20.611Z,14.50
2018-10-18T08:55:51.393Z,14.60
2018-10-18T08:58:21.548Z,14.70
2018-10-18T09:00:50.859Z,14.90
2018-10-18T09:03:19.820Z,15.10
2018-10-18T09:05:48.331Z,15.20
2018-10-18T09:08:18.396Z,15.30
2018-10-18T09:10:47.322Z,15.40
2018-10-18T09:13:16.558Z,15.50
2018-10-18T09:15:47.223Z,15.60
2018-10-18T09:18:16.444Z,15.80
2018-10-18T09:20:45.185Z,15.90
2018-10-18T09:23:15.371Z,16.00
2018-10-18T09:25:43.844Z,16.10
2018-10-18T09:28:13.115Z,16.10
2018-10-18T09:30:41.984Z,16.30
2018-10-18T09:35:39.216Z,16.50
2018-10-18T09:38:07.865Z,16.50
2018-10-18T09:40:37.487Z,16.50
2018-10-18T09:43:06.940Z,16.60
2018-10-18T09:45:36.141Z,16.70
2018-10-18T09:48:05.988Z,16.80
2018-10-18T09:50:35.680Z,16.90
2018-10-18T09:53:04.813Z,17.10
2018-10-18T09:55:34.440Z,17.20
2018-10-18T09:58:02.988Z,17.30
2018-10-18T10:00:37.341Z,17.30
2018-10-18T10:03:11.566Z,17.40
2018-10-18T10:05:40.194Z,17.40
2018-10-18T10:08:09.716Z,17.60
2018-10-18T10:10:38.635Z,17.60
2018-10-18T10:13:08.721Z,17.60
2018-10-18T10:15:38.209Z,17.60
2018-10-18T10:18:07.064Z,17.60
2018-10-18T10:20:36.273Z,17.60
2018-10-18T10:23:05.910Z,17.60
2018-10-18T10:25:36.391Z,18.10
2018-10-18T10:28:05.342Z,18.10
2018-10-18T10:30:35.210Z,18.10
2018-10-18T10:33:04.152Z,18.10
2018-10-18T10:35:32.660Z,18.20
2018-10-18T10:38:01.185Z,18.40
2018-10-18T10:40:29.841Z,18.50
2018-10-18T10:42:58.801Z,18.50
2018-10-18T10:45:27.334Z,18.60
2018-10-18T10:47:56.551Z,18.80
2018-10-18T10:50:27.707Z,19.00
2018-10-18T10:55:36.590Z,19.50
2018-10-18T10:58:06.077Z,19.50
2018-10-18T11:01:22.987Z,19.90
2018-10-18T11:03:54.024Z,20.10
2018-10-18T11:06:23.270Z,20.10
2018-10-18T11:08:52.499Z,20.10
2018-10-18T11:11:21.876Z,20.00
2018-10-18T11:13:51.793Z,20.10
2018-10-18T11:16:20.927Z,20.30
2018-10-18T11:18:49.881Z,20.40
2018-10-18T11:21:18.675Z,20.20
2018-10-18T11:23:47.243Z,20.40
2018-10-18T11:26:15.956Z,20.50
2018-10-18T11:28:44.629Z,20.50
2018-10-18T11:31:13.811Z,20.60
2018-10-18T11:33:43.288Z,20.90
2018-10-18T11:36:12.245Z,21.00
2018-10-18T11:38:41.968Z,20.80
2018-10-18T11:41:11.122Z,20.80
2018-10-18T11:43:40.936Z,20.80
2018-10-18T11:46:09.742Z,20.90
2018-10-18T11:48:39.889Z,20.90
2018-10-18T11:51:08.680Z,20.90
2018-10-18T11:53:37.158Z,21.10
2018-10-18T11:56:05.798Z,21.20
2018-10-18T11:58:34.352Z,21.20
2018-10-18T12:01:03.157Z,21.30
2018-10-18T12:03:32.243Z,21.40
2018-10-18T12:06:01.387Z,21.40
2018-10-18T12:08:30.874Z,22.60
2018-10-18T12:11:00.213Z,22.00
2018-10-18T12:13:28.963Z,21.90
2018-10-18T12:15:58.127Z,22.00
2018-10-18T12:18:27.234Z,21.90
2018-10-18T12:20:56.421Z,22.10
2018-10-18T12:23:25.033Z,22.20
2018-10-18T12:25:54.859Z,22.40
2018-10-18T12:28:24.171Z,22.40
2018-10-18T12:30:53.340Z,22.80
2018-10-18T12:33:22.000Z,22.90
2018-10-18T12:35:51.902Z,22.90
2018-10-18T12:38:21.493Z,23.10
2018-10-18T12:40:51.292Z,23.10
2018-10-18T12:43:20.664Z,23.00
2018-10-18T12:45:49.984Z,23.00
2018-10-18T12:48:19.394Z,23.20
2018-10-18T12:50:47.704Z,23.20
2018-10-18T12:53:17.562Z,23.30
2018-10-18T12:55:47.371Z,23.30
2018-10-18T12:58:16.913Z,23.20
2018-10-18T13:00:45.471Z,23.20
2018-10-18T13:03:16.202Z,23.30
2018-10-18T13:05:44.983Z,23.50
2018-10-18T13:08:13.864Z,23.90
2018-10-18T13:10:43.577Z,24.10
2018-10-18T13:13:13.744Z,24.80
2018-10-18T13:15:42.569Z,25.20
2018-10-18T13:20:40.759Z,26.00
2018-10-18T13:23:10.392Z,26.50
2018-10-18T13:25:39.074Z,27.10
2018-10-18T13:30:37.460Z,27.50
2018-10-18T13:33:06.762Z,27.50
2018-10-18T13:35:37.074Z,28.40
2018-10-18T13:38:06.804Z,28.40
2018-10-18T13:40:37.349Z,28.20
2018-10-18T13:43:06.374Z,27.40
2018-10-18T13:45:34.992Z,27.20
2018-10-18T13:48:04.825Z,27.10
2018-10-18T13:50:34.865Z,27.70
2018-10-18T13:53:04.240Z,27.40
2018-10-18T13:55:33.637Z,27.40
2018-10-18T13:58:03.249Z,27.40
2018-10-18T14:00:32.101Z,26.80
2018-10-18T14:03:03.758Z,26.60
2018-10-18T14:05:32.493Z,26.50
2018-10-18T14:08:01.635Z,26.00
2018-10-18T14:10:30.420Z,25.90
2018-10-18T14:12:59.994Z,25.80
2018-10-18T14:15:30.399Z,26.10
2018-10-18T14:18:01.156Z,26.50
2018-10-18T14:20:32.023Z,26.30
2018-10-18T14:23:01.729Z,26.30
2018-10-18T14:25:31.531Z,26.20
2018-10-18T14:28:01.921Z,25.80
2018-10-18T14:30:31.078Z,25.90
2018-10-18T14:32:59.653Z,26.50
2018-10-18T14:35:28.261Z,27.00
2018-10-18T14:37:58.218Z,26.40
2018-10-18T14:40:28.255Z,26.10
2018-10-18T14:42:57.281Z,25.90
2018-10-18T14:45:26.006Z,25.70
2018-10-18T14:47:55.282Z,25.40
2018-10-18T14:50:25.145Z,25.50
2018-10-18T14:52:55.604Z,25.50
2018-10-18T14:55:25.940Z,25.20
2018-10-18T14:57:55.709Z,25.20
2018-10-18T15:00:24.397Z,25.00
2018-10-18T15:02:52.895Z,25.00
2018-10-18T15:05:22.412Z,25.00
2018-10-18T15:07:51.523Z,24.90
2018-10-18T15:10:21.869Z,24.40
2018-10-18T15:12:51.113Z,24.40
2018-10-18T15:15:19.869Z,24.30
2018-10-18T15:17:49.382Z,24.40
2018-10-18T15:20:18.323Z,24.20
2018-10-18T15:22:46.877Z,24.10
2018-10-18T15:25:16.045Z,24.00
2018-10-18T15:27:44.821Z,23.80
2018-10-18T15:30:15.168Z,23.60
2018-10-18T15:32:43.838Z,23.60
2018-10-18T15:35:12.975Z,23.10
2018-10-18T15:37:42.330Z,22.80
2018-10-18T15:40:10.869Z,22.50
2018-10-18T15:42:40.564Z,22.50
2018-10-18T15:45:10.348Z,22.30
2018-10-18T15:47:39.303Z,22.00
2018-10-18T15:50:09.553Z,21.60
2018-10-18T15:52:38.085Z,21.40
2018-10-18T15:55:07.938Z,21.20
2018-10-18T15:57:37.205Z,21.00
2018-10-18T16:00:09.828Z,20.50
2018-10-18T16:02:38.453Z,20.60
2018-10-18T16:05:09.947Z,20.50
2018-10-18T16:07:39.028Z,20.30
2018-10-18T16:10:09.891Z,20.00
2018-10-18T16:12:39.572Z,19.90
2018-10-18T16:15:10.397Z,19.90
2018-10-18T16:17:39.970Z,19.80
2018-10-18T16:20:10.221Z,19.50
2018-10-18T16:22:42.148Z,19.50
2018-10-18T16:25:11.514Z,19.30
2018-10-18T16:27:41.667Z,19.20
2018-10-18T16:30:11.541Z,19.10
2018-10-18T16:32:41.214Z,19.10
2018-10-18T16:35:09.767Z,19.00
2018-10-18T16:37:39.533Z,18.90
2018-10-18T16:42:38.817Z,18.80
2018-10-18T16:45:10.986Z,18.70
2018-10-18T16:47:41.174Z,18.70
2018-10-18T16:50:11.269Z,18.60
2018-10-18T16:52:41.109Z,18.60
2018-10-18T16:55:11.445Z,18.50
2018-10-18T16:57:40.501Z,18.50
2018-10-18T17:00:10.332Z,18.50
2018-10-18T17:02:41.146Z,18.40
2018-10-18T17:05:10.769Z,18.40
2018-10-18T17:07:40.339Z,18.40
2018-10-18T17:10:09.507Z,18.20
2018-10-18T17:12:39.096Z,18.10
2018-10-18T17:15:08.796Z,18.10
2018-10-18T17:17:38.452Z,18.10
2018-10-18T17:20:07.507Z,18.00
2018-10-18T17:22:37.247Z,17.90
2018-10-18T17:25:07.077Z,17.80
2018-10-18T17:27:35.866Z,17.80
2018-10-18T17:30:05.384Z,17.70
2018-10-18T17:32:35.135Z,17.70
2018-10-18T17:35:04.688Z,17.60
2018-10-18T17:37:34.831Z,17.60
2018-10-18T17:40:04.658Z,17.50
2018-10-18T17:42:33.121Z,17.40
2018-10-18T17:45:02.373Z,17.40
2018-10-18T17:47:31.677Z,17.30
2018-10-18T17:50:00.226Z,17.30
2018-10-18T17:52:30.124Z,17.20
2018-10-18T17:54:59.259Z,17.10
2018-10-18T17:57:29.275Z,15.20
2018-10-18T17:59:58.947Z,17.00
2018-10-18T18:02:29.958Z,17.00
2018-10-18T18:04:59.200Z,16.90
2018-10-18T18:07:28.140Z,16.90
2018-10-18T18:09:57.425Z,16.70
2018-10-18T18:12:28.510Z,16.60
2018-10-18T18:14:57.302Z,16.60
2018-10-18T18:17:26.976Z,16.60
2018-10-18T18:19:56.538Z,16.50
2018-10-18T18:22:25.527Z,16.50
2018-10-18T18:24:55.452Z,16.40
2018-10-18T18:27:23.923Z,16.40
2018-10-18T18:29:52.282Z,16.40
2018-10-18T18:32:20.706Z,16.30
2018-10-18T18:34:49.181Z,16.20
2018-10-18T18:37:17.544Z,16.20
2018-10-18T18:39:45.968Z,16.20
2018-10-18T18:42:15.033Z,16.10
2018-10-18T18:44:43.442Z,16.10
2018-10-18T18:47:11.796Z,16.00
2018-10-18T18:49:40.569Z,16.00
2018-10-18T18:52:08.949Z,16.00
2018-10-18T18:54:38.143Z,15.90
2018-10-18T18:57:07.153Z,15.90
2018-10-18T18:59:37.203Z,15.80
2018-10-18T19:02:06.602Z,15.80
2018-10-18T19:04:35.143Z,15.70
2018-10-18T19:09:32.766Z,15.70
2018-10-18T19:12:01.840Z,15.70
2018-10-18T19:14:30.684Z,15.70
2018-10-18T19:16:59.811Z,15.60
2018-10-18T19:19:28.748Z,15.60
2018-10-18T19:21:57.228Z,15.60
2018-10-18T19:24:26.018Z,15.60
2018-10-18T19:26:56.023Z,15.60
2018-10-18T19:29:24.505Z,15.60
2018-10-18T19:31:53.372Z,15.60
2018-10-18T19:34:22.054Z,15.70
2018-10-18T19:36:50.372Z,15.70
2018-10-18T19:39:18.896Z,15.60
2018-10-18T19:41:47.261Z,15.60
2018-10-18T19:44:15.829Z,15.60
2018-10-18T19:46:44.490Z,15.60
2018-10-18T19:49:13.059Z,15.60
2018-10-18T19:51:41.453Z,15.50
2018-10-18T19:54:10.453Z,15.50
2018-10-18T19:56:39.446Z,15.40
2018-10-18T20:01:36.143Z,15.40
2018-10-18T20:04:04.747Z,15.40
2018-10-18T20:06:33.084Z,15.40
2018-10-18T20:09:01.432Z,15.30
2018-10-18T20:11:29.804Z,15.40
2018-10-18T20:13:59.471Z,15.40
2018-10-18T20:16:27.957Z,15.30
2018-10-18T20:18:57.095Z,15.30
2018-10-18T20:21:25.481Z,15.30
2018-10-18T20:23:53.901Z,15.20
2018-10-18T20:26:22.457Z,15.30
2018-10-18T20:28:50.783Z,15.20
2018-10-18T20:31:19.449Z,15.10
2018-10-18T20:33:48.594Z,15.10
2018-10-18T20:36:17.367Z,15.10
2018-10-18T20:38:46.196Z,15.10
2018-10-18T20:41:15.364Z,15.10
2018-10-18T20:43:43.694Z,15.10
2018-10-18T20:46:13.099Z,15.10
2018-10-18T20:48:41.488Z,15.10
2018-10-18T20:51:09.939Z,15.00
2018-10-18T20:53:38.584Z,15.00
2018-10-18T20:56:06.960Z,14.90
2018-10-18T20:58:36.505Z,14.90
2018-10-18T21:01:06.526Z,14.90
2018-10-18T21:03:34.969Z,14.90
2018-10-18T21:06:03.745Z,14.90
2018-10-18T21:08:32.560Z,14.80
2018-10-18T21:11:01.082Z,14.80
2018-10-18T21:13:29.585Z,14.80
2018-10-18T21:15:58.135Z,14.70
2018-10-18T21:18:26.567Z,14.70
2018-10-18T21:23:23.371Z,14.60
2018-10-18T21:25:52.707Z,14.50
2018-10-18T21:28:21.728Z,14.60
2018-10-18T21:30:50.322Z,14.50
2018-10-18T21:33:18.832Z,14.50
2018-10-18T21:35:47.967Z,14.40
2018-10-18T21:38:16.430Z,14.50
2018-10-18T21:40:45.091Z,14.30
2018-10-18T21:43:13.436Z,14.30
2018-10-18T21:45:48.880Z,14.30
2018-10-18T21:48:18.021Z,14.30
2018-10-18T21:50:47.725Z,14.30
2018-10-18T21:53:16.466Z,14.20
2018-10-18T21:55:44.862Z,14.20
2018-10-18T21:58:13.245Z,14.20
2018-10-18T22:00:44.268Z,14.20
2018-10-18T22:03:13.414Z,14.10
2018-10-18T22:05:43.116Z,14.00
2018-10-18T22:08:11.526Z,14.00
2018-10-18T22:10:40.903Z,14.00
2018-10-18T22:15:38.546Z,14.00
2018-10-18T22:18:07.710Z,13.90
2018-10-18T22:20:36.457Z,13.90
2018-10-18T22:23:05.480Z,13.80
2018-10-18T22:25:34.251Z,13.80
2018-10-18T22:28:02.883Z,13.90
2018-10-18T22:30:31.245Z,13.80
2018-10-18T22:32:59.619Z,13.70
2018-10-18T22:35:27.958Z,13.70
2018-10-18T22:37:57.285Z,13.70
2018-10-18T22:40:25.797Z,13.70
2018-10-18T22:42:54.264Z,13.60
2018-10-18T22:45:23.631Z,13.60
2018-10-18T22:50:20.752Z,13.50
2018-10-18T22:52:49.083Z,13.60
2018-10-18T22:55:18.844Z,13.50
2018-10-18T22:57:47.161Z,13.50
2018-10-18T23:00:15.872Z,13.50
2018-10-18T23:02:44.526Z,13.50
2018-10-18T23:05:13.805Z,13.40
2018-10-18T23:07:42.222Z,13.40
2018-10-18T23:10:10.887Z,13.40
2018-10-18T23:12:39.514Z,13.40
2018-10-18T23:15:09.521Z,13.30
2018-10-18T23:17:38.197Z,13.40
2018-10-18T23:20:08.312Z,13.40
2018-10-18T23:22:37.105Z,13.30
2018-10-18T23:25:06.520Z,13.30
2018-10-18T23:27:34.917Z,13.20
2018-10-18T23:30:04.795Z,13.20
2018-10-18T23:32:33.584Z,13.20
2018-10-18T23:35:02.727Z,13.20
2018-10-18T23:37:31.345Z,13.20
2018-10-18T23:40:00.413Z,13.20
2018-10-18T23:44:57.416Z,13.10
2018-10-18T23:47:25.754Z,13.10
2018-10-18T23:49:54.204Z,13.00
2018-10-18T23:52:22.985Z,13.00
2018-10-18T23:54:52.571Z,13.00
2018-10-18T23:57:23.493Z,12.90
2018-10-18T23:59:52.121Z,12.90
